sensor_id;sensor_type;location;lat;lon;timestamp;temperature;humidity
26063;DHT22;13837;48.562;12.108;2022-08-30T00:01:29;14.40;99.90
26063;DHT22;13837;48.562;12.108;2022-08-30T00:03:56;14.40;99.90
26063;DHT22;13837;48.562;12.108;2022-08-30T00:06:24;14.40;99.90
26063;DHT22;13837;48.562;12.108;2022-08-30T00:08:51;14.30;99.90
26063;DHT22;13837;48.562;12.108;2022-08-30T00:11:21;14.20;99.90
26063;DHT22;13837;48.562;12.108;2022-08-30T00:13:49;14.10;99.90
26063;DHT22;13837;48.562;12.108;2022-08-30T00:16:16;14.10;99.90
26063;DHT22;13837;48.562;12.108;2022-08-30T00:18:42;14.00;99.90
26063;DHT22;13837;48.562;12.108;2022-08-30T00:21:09;13.90;99.90
26063;DHT22;13837;48.562;12.108;2022-08-30T00:23:35;13.90;99.90
26063;DHT22;13837;48.562;12.108;2022-08-30T00:26:02;13.80;99.90
26063;DHT22;13837;48.562;12.108;2022-08-30T00:28:28;13.80;99.90
26063;DHT22;13837;48.562;12.108;2022-08-30T00:30:57;13.90;99.90
26063;DHT22;13837;48.562;12.108;2022-08-30T00:33:27;13.90;99.90
26063;DHT22;13837;48.562;12.108;2022-08-30T00:35:53;13.90;99.90
26063;DHT22;13837;48.562;12.108;2022-08-30T00:38:19;13.90;99.90
26063;DHT22;13837;48.562;12.108;2022-08-30T00:40:47;13.90;99.90
26063;DHT22;13837;48.562;12.108;2022-08-30T00:43:20;13.90;99.90
26063;DHT22;13837;48.562;12.108;2022-08-30T00:45:48;13.80;99.90
26063;DHT22;13837;48.562;12.108;2022-08-30T00:48:14;13.80;99.90
26063;DHT22;13837;48.562;12.108;2022-08-30T00:50:46;13.70;99.90
26063;DHT22;13837;48.562;12.108;2022-08-30T00:53:21;13.70;99.90
26063;DHT22;13837;48.562;12.108;2022-08-30T00:55:47;13.70;99.90
26063;DHT22;13837;48.562;12.108;2022-08-30T00:58:17;13.70;99.90
26063;DHT22;13837;48.562;12.108;2022-08-30T01:00:48;13.80;99.90
26063;DHT22;13837;48.562;12.108;2022-08-30T01:03:14;13.80;99.90
26063;DHT22;13837;48.562;12.108;2022-08-30T01:05:40;13.80;99.90
26063;DHT22;13837;48.562;12.108;2022-08-30T01:08:06;13.80;99.90
26063;DHT22;13837;48.562;12.108;2022-08-30T01:10:33;13.80;99.90
26063;DHT22;13837;48.562;12.108;2022-08-30T01:13:03;13.80;99.90
26063;DHT22;13837;48.562;12.108;2022-08-30T01:15:32;13.90;99.90
26063;DHT22;13837;48.562;12.108;2022-08-30T01:17:59;13.90;99.90
26063;DHT22;13837;48.562;12.108;2022-08-30T01:20:51;14.00;99.90
26063;DHT22;13837;48.562;12.108;2022-08-30T01:23:15;13.90;99.90
26063;DHT22;13837;48.562;12.108;2022-08-30T01:25:45;13.90;99.90
26063;DHT22;13837;48.562;12.108;2022-08-30T01:28:17;14.00;99.90
26063;DHT22;13837;48.562;12.108;2022-08-30T01:30:43;13.90;99.90
26063;DHT22;13837;48.562;12.108;2022-08-30T01:33:10;13.80;99.90
26063;DHT22;13837;48.562;12.108;2022-08-30T01:35:59;13.80;99.90
26063;DHT22;13837;48.562;12.108;2022-08-30T01:38:37;13.90;99.90
26063;DHT22;13837;48.562;12.108;2022-08-30T01:41:12;13.70;99.90
26063;DHT22;13837;48.562;12.108;2022-08-30T01:43:40;13.60;99.90
26063;DHT22;13837;48.562;12.108;2022-08-30T01:46:06;13.60;99.90
26063;DHT22;13837;48.562;12.108;2022-08-30T01:48:32;13.50;99.90
26063;DHT22;13837;48.562;12.108;2022-08-30T01:50:59;13.50;99.90
26063;DHT22;13837;48.562;12.108;2022-08-30T01:53:25;13.50;99.90
26063;DHT22;13837;48.562;12.108;2022-08-30T01:55:50;13.40;99.90
26063;DHT22;13837;48.562;12.108;2022-08-30T01:58:16;13.40;99.90
26063;DHT22;13837;48.562;12.108;2022-08-30T02:00:42;13.40;99.90
26063;DHT22;13837;48.562;12.108;2022-08-30T02:03:07;13.40;99.90
26063;DHT22;13837;48.562;12.108;2022-08-30T02:05:33;13.30;99.90
26063;DHT22;13837;48.562;12.108;2022-08-30T02:07:59;13.20;99.90
26063;DHT22;13837;48.562;12.108;2022-08-30T02:10:25;13.00;99.90
26063;DHT22;13837;48.562;12.108;2022-08-30T02:12:51;13.00;99.90
26063;DHT22;13837;48.562;12.108;2022-08-30T02:15:17;13.00;99.90
26063;DHT22;13837;48.562;12.108;2022-08-30T02:17:43;12.90;99.90
26063;DHT22;13837;48.562;12.108;2022-08-30T02:20:09;12.90;99.90
26063;DHT22;13837;48.562;12.108;2022-08-30T02:22:35;12.90;99.90
26063;DHT22;13837;48.562;12.108;2022-08-30T02:25:01;12.90;99.90
26063;DHT22;13837;48.562;12.108;2022-08-30T02:27:27;12.90;99.90
26063;DHT22;13837;48.562;12.108;2022-08-30T02:29:52;12.90;99.90
26063;DHT22;13837;48.562;12.108;2022-08-30T02:32:18;12.90;99.90
26063;DHT22;13837;48.562;12.108;2022-08-30T02:34:44;12.80;99.90
26063;DHT22;13837;48.562;12.108;2022-08-30T02:37:11;12.80;99.90
26063;DHT22;13837;48.562;12.108;2022-08-30T02:39:37;12.90;99.90
26063;DHT22;13837;48.562;12.108;2022-08-30T02:42:03;12.90;99.90
26063;DHT22;13837;48.562;12.108;2022-08-30T02:44:29;12.90;99.90
26063;DHT22;13837;48.562;12.108;2022-08-30T02:46:55;12.80;99.90
26063;DHT22;13837;48.562;12.108;2022-08-30T02:49:20;12.80;99.90
26063;DHT22;13837;48.562;12.108;2022-08-30T02:51:46;12.70;99.90
26063;DHT22;13837;48.562;12.108;2022-08-30T02:54:12;12.70;99.90
26063;DHT22;13837;48.562;12.108;2022-08-30T02:56:44;12.70;99.90
26063;DHT22;13837;48.562;12.108;2022-08-30T02:59:11;12.60;99.90
26063;DHT22;13837;48.562;12.108;2022-08-30T03:01:36;12.60;99.90
26063;DHT22;13837;48.562;12.108;2022-08-30T03:04:04;12.60;99.90
26063;DHT22;13837;48.562;12.108;2022-08-30T03:06:30;12.60;99.90
26063;DHT22;13837;48.562;12.108;2022-08-30T03:08:56;12.60;99.90
26063;DHT22;13837;48.562;12.108;2022-08-30T03:11:21;12.70;99.90
26063;DHT22;13837;48.562;12.108;2022-08-30T03:13:47;12.60;99.90
26063;DHT22;13837;48.562;12.108;2022-08-30T03:16:13;12.60;99.90
26063;DHT22;13837;48.562;12.108;2022-08-30T03:18:39;12.60;99.90
26063;DHT22;13837;48.562;12.108;2022-08-30T03:21:10;12.60;99.90
26063;DHT22;13837;48.562;12.108;2022-08-30T03:23:36;12.60;99.90
26063;DHT22;13837;48.562;12.108;2022-08-30T03:26:02;12.60;99.90
26063;DHT22;13837;48.562;12.108;2022-08-30T03:28:28;12.60;99.90
26063;DHT22;13837;48.562;12.108;2022-08-30T03:30:54;12.60;99.90
26063;DHT22;13837;48.562;12.108;2022-08-30T03:33:20;12.60;99.90
26063;DHT22;13837;48.562;12.108;2022-08-30T03:35:46;12.60;99.90
26063;DHT22;13837;48.562;12.108;2022-08-30T03:38:12;12.50;99.90
26063;DHT22;13837;48.562;12.108;2022-08-30T03:40:38;12.60;99.90
26063;DHT22;13837;48.562;12.108;2022-08-30T03:43:04;12.60;99.90
26063;DHT22;13837;48.562;12.108;2022-08-30T03:45:30;12.60;99.90
26063;DHT22;13837;48.562;12.108;2022-08-30T03:47:55;12.60;99.90
26063;DHT22;13837;48.562;12.108;2022-08-30T03:50:21;12.60;99.90
26063;DHT22;13837;48.562;12.108;2022-08-30T03:52:47;12.60;99.90
26063;DHT22;13837;48.562;12.108;2022-08-30T03:55:13;12.60;99.90
26063;DHT22;13837;48.562;12.108;2022-08-30T03:57:39;12.50;99.90
26063;DHT22;13837;48.562;12.108;2022-08-30T04:00:07;12.60;99.90
26063;DHT22;13837;48.562;12.108;2022-08-30T04:02:37;12.60;99.90
26063;DHT22;13837;48.562;12.108;2022-08-30T04:05:03;12.60;99.90
26063;DHT22;13837;48.562;12.108;2022-08-30T04:07:29;12.60;99.90
26063;DHT22;13837;48.562;12.108;2022-08-30T04:09:54;12.70;99.90
26063;DHT22;13837;48.562;12.108;2022-08-30T04:12:21;12.80;99.90
26063;DHT22;13837;48.562;12.108;2022-08-30T04:14:47;12.80;99.90
26063;DHT22;13837;48.562;12.108;2022-08-30T04:17:12;12.90;99.90
26063;DHT22;13837;48.562;12.108;2022-08-30T04:19:38;12.80;99.90
26063;DHT22;13837;48.562;12.108;2022-08-30T04:22:04;12.90;99.90
26063;DHT22;13837;48.562;12.108;2022-08-30T04:24:30;12.80;99.90
26063;DHT22;13837;48.562;12.108;2022-08-30T04:26:58;12.80;99.90
26063;DHT22;13837;48.562;12.108;2022-08-30T04:29:24;12.80;99.90
26063;DHT22;13837;48.562;12.108;2022-08-30T04:31:49;12.80;99.90
26063;DHT22;13837;48.562;12.108;2022-08-30T04:34:15;12.80;99.90
26063;DHT22;13837;48.562;12.108;2022-08-30T04:36:41;12.80;99.90
26063;DHT22;13837;48.562;12.108;2022-08-30T04:39:07;12.80;99.90
26063;DHT22;13837;48.562;12.108;2022-08-30T04:41:35;12.80;99.90
26063;DHT22;13837;48.562;12.108;2022-08-30T04:44:01;12.90;99.90
26063;DHT22;13837;48.562;12.108;2022-08-30T04:46:28;12.80;99.90
26063;DHT22;13837;48.562;12.108;2022-08-30T04:48:54;12.80;99.90
26063;DHT22;13837;48.562;12.108;2022-08-30T04:51:20;12.80;99.90
26063;DHT22;13837;48.562;12.108;2022-08-30T04:53:46;12.90;99.90
26063;DHT22;13837;48.562;12.108;2022-08-30T04:56:14;12.80;99.90
26063;DHT22;13837;48.562;12.108;2022-08-30T04:58:44;12.80;99.90
26063;DHT22;13837;48.562;12.108;2022-08-30T05:01:15;12.80;99.90
26063;DHT22;13837;48.562;12.108;2022-08-30T05:03:41;12.90;99.90
26063;DHT22;13837;48.562;12.108;2022-08-30T05:06:06;12.80;99.90
26063;DHT22;13837;48.562;12.108;2022-08-30T05:08:32;12.80;99.90
26063;DHT22;13837;48.562;12.108;2022-08-30T05:10:58;12.80;99.90
26063;DHT22;13837;48.562;12.108;2022-08-30T05:13:24;12.80;99.90
26063;DHT22;13837;48.562;12.108;2022-08-30T05:15:50;12.80;99.90
26063;DHT22;13837;48.562;12.108;2022-08-30T05:18:15;12.90;99.90
26063;DHT22;13837;48.562;12.108;2022-08-30T05:20:42;12.90;99.90
26063;DHT22;13837;48.562;12.108;2022-08-30T05:23:08;12.90;99.90
26063;DHT22;13837;48.562;12.108;2022-08-30T05:25:38;12.90;99.90
26063;DHT22;13837;48.562;12.108;2022-08-30T05:28:03;13.00;99.90
26063;DHT22;13837;48.562;12.108;2022-08-30T05:30:32;13.10;99.90
26063;DHT22;13837;48.562;12.108;2022-08-30T05:32:58;13.10;99.90
26063;DHT22;13837;48.562;12.108;2022-08-30T05:35:23;13.30;99.90
26063;DHT22;13837;48.562;12.108;2022-08-30T05:37:49;13.40;99.90
26063;DHT22;13837;48.562;12.108;2022-08-30T05:40:15;13.60;99.90
26063;DHT22;13837;48.562;12.108;2022-08-30T05:42:45;13.90;99.90
26063;DHT22;13837;48.562;12.108;2022-08-30T05:45:12;14.30;99.90
26063;DHT22;13837;48.562;12.108;2022-08-30T05:47:39;14.60;99.90
26063;DHT22;13837;48.562;12.108;2022-08-30T05:50:06;15.00;99.90
26063;DHT22;13837;48.562;12.108;2022-08-30T05:52:37;15.30;99.90
26063;DHT22;13837;48.562;12.108;2022-08-30T05:55:04;15.70;99.90
26063;DHT22;13837;48.562;12.108;2022-08-30T05:57:33;16.00;99.90
26063;DHT22;13837;48.562;12.108;2022-08-30T06:00:00;16.40;99.90
26063;DHT22;13837;48.562;12.108;2022-08-30T06:02:26;16.60;99.90
26063;DHT22;13837;48.562;12.108;2022-08-30T06:04:52;16.90;99.90
26063;DHT22;13837;48.562;12.108;2022-08-30T06:07:17;17.20;99.90
26063;DHT22;13837;48.562;12.108;2022-08-30T06:09:43;17.40;99.90
26063;DHT22;13837;48.562;12.108;2022-08-30T06:12:09;17.40;99.90
26063;DHT22;13837;48.562;12.108;2022-08-30T06:14:34;17.70;99.90
26063;DHT22;13837;48.562;12.108;2022-08-30T06:17:00;18.00;99.90
26063;DHT22;13837;48.562;12.108;2022-08-30T06:19:26;18.10;99.90
26063;DHT22;13837;48.562;12.108;2022-08-30T06:21:51;18.40;99.90
26063;DHT22;13837;48.562;12.108;2022-08-30T06:24:17;17.70;99.90
26063;DHT22;13837;48.562;12.108;2022-08-30T06:26:45;16.90;99.90
26063;DHT22;13837;48.562;12.108;2022-08-30T06:29:14;16.60;99.90
26063;DHT22;13837;48.562;12.108;2022-08-30T06:31:40;16.20;99.90
26063;DHT22;13837;48.562;12.108;2022-08-30T06:34:06;16.30;99.90
26063;DHT22;13837;48.562;12.108;2022-08-30T06:36:32;16.30;99.90
26063;DHT22;13837;48.562;12.108;2022-08-30T06:38:59;16.60;99.90
26063;DHT22;13837;48.562;12.108;2022-08-30T06:41:27;17.10;99.90
26063;DHT22;13837;48.562;12.108;2022-08-30T06:43:54;17.60;99.90
26063;DHT22;13837;48.562;12.108;2022-08-30T06:46:26;18.00;99.90
26063;DHT22;13837;48.562;12.108;2022-08-30T06:48:52;18.30;99.90
26063;DHT22;13837;48.562;12.108;2022-08-30T06:51:23;18.70;99.90
26063;DHT22;13837;48.562;12.108;2022-08-30T06:53:50;18.90;99.90
26063;DHT22;13837;48.562;12.108;2022-08-30T06:56:17;19.10;99.90
26063;DHT22;13837;48.562;12.108;2022-08-30T06:58:43;19.30;99.90
26063;DHT22;13837;48.562;12.108;2022-08-30T07:01:15;19.30;99.90
26063;DHT22;13837;48.562;12.108;2022-08-30T07:03:41;19.40;99.90
26063;DHT22;13837;48.562;12.108;2022-08-30T07:06:07;19.60;99.90
26063;DHT22;13837;48.562;12.108;2022-08-30T07:08:33;19.70;99.90
26063;DHT22;13837;48.562;12.108;2022-08-30T07:10:59;19.90;99.90
26063;DHT22;13837;48.562;12.108;2022-08-30T07:13:25;19.80;99.90
26063;DHT22;13837;48.562;12.108;2022-08-30T07:15:52;19.70;99.90
26063;DHT22;13837;48.562;12.108;2022-08-30T07:18:18;19.90;99.90
26063;DHT22;13837;48.562;12.108;2022-08-30T07:21:12;20.00;99.90
26063;DHT22;13837;48.562;12.108;2022-08-30T07:23:38;20.30;99.90
26063;DHT22;13837;48.562;12.108;2022-08-30T07:26:05;20.40;99.90
26063;DHT22;13837;48.562;12.108;2022-08-30T07:28:33;20.60;99.90
26063;DHT22;13837;48.562;12.108;2022-08-30T07:30:58;20.70;99.90
26063;DHT22;13837;48.562;12.108;2022-08-30T07:33:24;20.70;99.90
26063;DHT22;13837;48.562;12.108;2022-08-30T07:35:50;20.80;99.90
26063;DHT22;13837;48.562;12.108;2022-08-30T07:38:16;20.80;99.90
26063;DHT22;13837;48.562;12.108;2022-08-30T07:40:41;21.00;99.90
26063;DHT22;13837;48.562;12.108;2022-08-30T07:43:07;20.90;99.90
26063;DHT22;13837;48.562;12.108;2022-08-30T07:45:32;20.40;99.90
26063;DHT22;13837;48.562;12.108;2022-08-30T07:47:58;20.30;99.90
26063;DHT22;13837;48.562;12.108;2022-08-30T07:50:24;20.50;99.90
26063;DHT22;13837;48.562;12.108;2022-08-30T07:52:49;20.90;99.90
26063;DHT22;13837;48.562;12.108;2022-08-30T07:55:15;21.20;99.90
26063;DHT22;13837;48.562;12.108;2022-08-30T07:57:41;21.50;99.90
26063;DHT22;13837;48.562;12.108;2022-08-30T08:00:07;21.60;99.90
26063;DHT22;13837;48.562;12.108;2022-08-30T08:02:37;21.40;99.90
26063;DHT22;13837;48.562;12.108;2022-08-30T08:05:05;21.30;99.90
26063;DHT22;13837;48.562;12.108;2022-08-30T08:07:33;21.50;99.90
26063;DHT22;13837;48.562;12.108;2022-08-30T08:09:59;21.60;99.90
26063;DHT22;13837;48.562;12.108;2022-08-30T08:12:25;21.90;99.90
26063;DHT22;13837;48.562;12.108;2022-08-30T08:14:50;21.60;99.90
26063;DHT22;13837;48.562;12.108;2022-08-30T08:17:16;21.60;99.90
26063;DHT22;13837;48.562;12.108;2022-08-30T08:19:42;21.70;99.90
26063;DHT22;13837;48.562;12.108;2022-08-30T08:22:08;22.10;99.90
26063;DHT22;13837;48.562;12.108;2022-08-30T08:24:33;22.30;99.90
26063;DHT22;13837;48.562;12.108;2022-08-30T08:26:59;22.50;99.90
26063;DHT22;13837;48.562;12.108;2022-08-30T08:29:25;22.70;99.90
26063;DHT22;13837;48.562;12.108;2022-08-30T08:31:52;23.00;99.90
26063;DHT22;13837;48.562;12.108;2022-08-30T08:34:18;23.10;99.90
26063;DHT22;13837;48.562;12.108;2022-08-30T08:36:48;23.20;99.90
26063;DHT22;13837;48.562;12.108;2022-08-30T08:39:14;23.50;99.90
26063;DHT22;13837;48.562;12.108;2022-08-30T08:42:23;23.60;99.90
26063;DHT22;13837;48.562;12.108;2022-08-30T08:44:58;23.40;99.90
26063;DHT22;13837;48.562;12.108;2022-08-30T08:47:34;23.60;99.90
26063;DHT22;13837;48.562;12.108;2022-08-30T08:50:06;23.50;99.90
26063;DHT22;13837;48.562;12.108;2022-08-30T08:55:26;24.10;99.90
26063;DHT22;13837;48.562;12.108;2022-08-30T08:57:55;24.20;99.90
26063;DHT22;13837;48.562;12.108;2022-08-30T09:00:21;24.30;99.90
26063;DHT22;13837;48.562;12.108;2022-08-30T09:02:58;24.50;99.90
26063;DHT22;13837;48.562;12.108;2022-08-30T09:05:26;24.70;99.90
26063;DHT22;13837;48.562;12.108;2022-08-30T09:08:00;24.90;99.90
26063;DHT22;13837;48.562;12.108;2022-08-30T09:10:27;25.10;99.90
26063;DHT22;13837;48.562;12.108;2022-08-30T09:12:54;25.10;99.90
26063;DHT22;13837;48.562;12.108;2022-08-30T09:15:26;25.30;99.90
26063;DHT22;13837;48.562;12.108;2022-08-30T09:18:00;25.30;99.90
26063;DHT22;13837;48.562;12.108;2022-08-30T09:20:41;25.10;99.90
26063;DHT22;13837;48.562;12.108;2022-08-30T09:23:26;25.20;99.90
26063;DHT22;13837;48.562;12.108;2022-08-30T09:28:27;25.20;99.90
26063;DHT22;13837;48.562;12.108;2022-08-30T09:31:06;25.60;99.90
26063;DHT22;13837;48.562;12.108;2022-08-30T09:33:32;25.80;99.90
26063;DHT22;13837;48.562;12.108;2022-08-30T09:36:13;25.70;99.90
26063;DHT22;13837;48.562;12.108;2022-08-30T09:38:40;25.40;99.90
26063;DHT22;13837;48.562;12.108;2022-08-30T09:41:26;25.60;99.90
26063;DHT22;13837;48.562;12.108;2022-08-30T09:44:26;25.50;99.90
26063;DHT22;13837;48.562;12.108;2022-08-30T09:46:58;25.70;99.90
26063;DHT22;13837;48.562;12.108;2022-08-30T09:49:34;25.90;99.90
26063;DHT22;13837;48.562;12.108;2022-08-30T09:52:32;26.00;99.90
26063;DHT22;13837;48.562;12.108;2022-08-30T09:58:18;25.90;99.90
26063;DHT22;13837;48.562;12.108;2022-08-30T10:01:10;25.60;99.90
26063;DHT22;13837;48.562;12.108;2022-08-30T10:06:33;25.60;99.90
26063;DHT22;13837;48.562;12.108;2022-08-30T10:11:40;26.00;99.90
26063;DHT22;13837;48.562;12.108;2022-08-30T10:24:38;25.80;99.90
26063;DHT22;13837;48.562;12.108;2022-08-30T10:27:09;26.20;99.90
26063;DHT22;13837;48.562;12.108;2022-08-30T10:29:56;26.80;99.90
26063;DHT22;13837;48.562;12.108;2022-08-30T10:32:38;27.20;99.90
26063;DHT22;13837;48.562;12.108;2022-08-30T10:35:16;27.30;99.90
26063;DHT22;13837;48.562;12.108;2022-08-30T10:40:32;27.50;99.90
26063;DHT22;13837;48.562;12.108;2022-08-30T10:45:59;27.30;99.90
26063;DHT22;13837;48.562;12.108;2022-08-30T10:48:32;26.90;99.90
26063;DHT22;13837;48.562;12.108;2022-08-30T10:51:06;27.40;99.90
26063;DHT22;13837;48.562;12.108;2022-08-30T10:54:15;27.80;99.90
26063;DHT22;13837;48.562;12.108;2022-08-30T10:56:43;28.20;99.90
26063;DHT22;13837;48.562;12.108;2022-08-30T10:59:10;28.40;99.90
26063;DHT22;13837;48.562;12.108;2022-08-30T11:01:47;27.90;99.90
26063;DHT22;13837;48.562;12.108;2022-08-30T11:13:10;28.20;99.90
26063;DHT22;13837;48.562;12.108;2022-08-30T11:18:18;27.80;99.90
26063;DHT22;13837;48.562;12.108;2022-08-30T11:20:53;27.90;99.90
26063;DHT22;13837;48.562;12.108;2022-08-30T11:23:26;27.60;99.90
26063;DHT22;13837;48.562;12.108;2022-08-30T11:26:08;27.60;99.90
26063;DHT22;13837;48.562;12.108;2022-08-30T11:33:54;27.60;99.90
26063;DHT22;13837;48.562;12.108;2022-08-30T11:39:11;28.20;99.90
26063;DHT22;13837;48.562;12.108;2022-08-30T11:41:40;27.60;99.90
26063;DHT22;13837;48.562;12.108;2022-08-30T11:46:54;28.40;99.90
26063;DHT22;13837;48.562;12.108;2022-08-30T11:59:28;29.20;99.50
26063;DHT22;13837;48.562;12.108;2022-08-30T12:01:56;29.30;98.60
26063;DHT22;13837;48.562;12.108;2022-08-30T12:04:33;29.60;98.70
26063;DHT22;13837;48.562;12.108;2022-08-30T12:07:06;29.50;99.40
26063;DHT22;13837;48.562;12.108;2022-08-30T12:12:08;30.00;98.90
26063;DHT22;13837;48.562;12.108;2022-08-30T12:17:20;30.30;99.30
26063;DHT22;13837;48.562;12.108;2022-08-30T12:20:15;30.70;99.30
26063;DHT22;13837;48.562;12.108;2022-08-30T12:22:42;30.70;96.30
26063;DHT22;13837;48.562;12.108;2022-08-30T12:25:16;30.60;96.40
26063;DHT22;13837;48.562;12.108;2022-08-30T12:27:42;30.70;97.00
26063;DHT22;13837;48.562;12.108;2022-08-30T12:30:09;30.60;96.10
26063;DHT22;13837;48.562;12.108;2022-08-30T12:32:43;30.60;94.70
26063;DHT22;13837;48.562;12.108;2022-08-30T12:35:19;30.70;95.30
26063;DHT22;13837;48.562;12.108;2022-08-30T12:37:55;30.90;94.90
26063;DHT22;13837;48.562;12.108;2022-08-30T12:40:23;30.90;94.80
26063;DHT22;13837;48.562;12.108;2022-08-30T12:45:18;30.50;94.80
26063;DHT22;13837;48.562;12.108;2022-08-30T12:48:09;29.90;92.50
26063;DHT22;13837;48.562;12.108;2022-08-30T12:50:50;29.90;94.10
26063;DHT22;13837;48.562;12.108;2022-08-30T12:53:25;30.10;93.60
26063;DHT22;13837;48.562;12.108;2022-08-30T12:58:46;30.20;93.20
26063;DHT22;13837;48.562;12.108;2022-08-30T13:03:37;29.50;93.90
26063;DHT22;13837;48.562;12.108;2022-08-30T13:06:05;29.90;93.50
26063;DHT22;13837;48.562;12.108;2022-08-30T13:11:09;30.40;92.70
26063;DHT22;13837;48.562;12.108;2022-08-30T13:16:19;29.70;92.10
26063;DHT22;13837;48.562;12.108;2022-08-30T13:18:47;29.90;93.10
26063;DHT22;13837;48.562;12.108;2022-08-30T13:23:49;30.20;91.60
26063;DHT22;13837;48.562;12.108;2022-08-30T13:26:15;30.60;92.00
26063;DHT22;13837;48.562;12.108;2022-08-30T13:28:46;30.70;91.60
26063;DHT22;13837;48.562;12.108;2022-08-30T13:31:12;30.90;90.60
26063;DHT22;13837;48.562;12.108;2022-08-30T13:33:38;30.90;88.00
26063;DHT22;13837;48.562;12.108;2022-08-30T13:36:04;30.80;91.10
26063;DHT22;13837;48.562;12.108;2022-08-30T13:38:29;30.90;90.70
26063;DHT22;13837;48.562;12.108;2022-08-30T13:40:55;31.10;90.80
26063;DHT22;13837;48.562;12.108;2022-08-30T13:43:21;30.40;91.70
26063;DHT22;13837;48.562;12.108;2022-08-30T13:45:46;30.00;92.10
26063;DHT22;13837;48.562;12.108;2022-08-30T13:48:13;28.50;90.00
26063;DHT22;13837;48.562;12.108;2022-08-30T13:50:40;29.00;91.40
26063;DHT22;13837;48.562;12.108;2022-08-30T13:53:08;29.50;91.10
26063;DHT22;13837;48.562;12.108;2022-08-30T13:55:35;29.70;91.00
26063;DHT22;13837;48.562;12.108;2022-08-30T13:58:01;29.80;90.60
26063;DHT22;13837;48.562;12.108;2022-08-30T14:00:26;30.20;91.60
26063;DHT22;13837;48.562;12.108;2022-08-30T14:02:53;29.50;87.40
26063;DHT22;13837;48.562;12.108;2022-08-30T14:05:24;29.10;90.90
26063;DHT22;13837;48.562;12.108;2022-08-30T14:07:52;29.00;90.30
26063;DHT22;13837;48.562;12.108;2022-08-30T14:10:18;29.00;91.00
26063;DHT22;13837;48.562;12.108;2022-08-30T14:12:45;29.30;90.20
26063;DHT22;13837;48.562;12.108;2022-08-30T14:15:11;29.50;90.40
26063;DHT22;13837;48.562;12.108;2022-08-30T14:17:36;29.80;89.90
26063;DHT22;13837;48.562;12.108;2022-08-30T14:20:04;30.00;89.70
26063;DHT22;13837;48.562;12.108;2022-08-30T14:22:30;30.20;87.60
26063;DHT22;13837;48.562;12.108;2022-08-30T14:24:56;30.30;89.20
26063;DHT22;13837;48.562;12.108;2022-08-30T14:27:21;30.20;86.60
26063;DHT22;13837;48.562;12.108;2022-08-30T14:29:48;30.10;87.60
26063;DHT22;13837;48.562;12.108;2022-08-30T14:32:14;30.10;89.40
26063;DHT22;13837;48.562;12.108;2022-08-30T14:34:40;29.90;90.20
26063;DHT22;13837;48.562;12.108;2022-08-30T14:37:06;30.10;90.00
26063;DHT22;13837;48.562;12.108;2022-08-30T14:39:33;30.10;87.60
26063;DHT22;13837;48.562;12.108;2022-08-30T14:41:59;29.60;90.60
26063;DHT22;13837;48.562;12.108;2022-08-30T14:44:25;29.90;91.20
26063;DHT22;13837;48.562;12.108;2022-08-30T14:46:51;30.20;91.00
26063;DHT22;13837;48.562;12.108;2022-08-30T14:49:17;30.20;91.10
26063;DHT22;13837;48.562;12.108;2022-08-30T14:51:44;30.20;89.70
26063;DHT22;13837;48.562;12.108;2022-08-30T14:54:14;30.10;90.10
26063;DHT22;13837;48.562;12.108;2022-08-30T14:56:40;30.00;90.40
26063;DHT22;13837;48.562;12.108;2022-08-30T14:59:06;29.80;91.30
26063;DHT22;13837;48.562;12.108;2022-08-30T15:01:32;29.80;91.00
26063;DHT22;13837;48.562;12.108;2022-08-30T15:03:58;29.70;91.40
26063;DHT22;13837;48.562;12.108;2022-08-30T15:06:24;29.60;91.20
26063;DHT22;13837;48.562;12.108;2022-08-30T15:08:50;29.50;91.90
26063;DHT22;13837;48.562;12.108;2022-08-30T15:11:18;29.50;91.90
26063;DHT22;13837;48.562;12.108;2022-08-30T15:13:44;29.40;91.20
26063;DHT22;13837;48.562;12.108;2022-08-30T15:16:25;29.40;91.40
26063;DHT22;13837;48.562;12.108;2022-08-30T15:18:52;29.50;91.90
26063;DHT22;13837;48.562;12.108;2022-08-30T15:21:29;29.60;91.60
26063;DHT22;13837;48.562;12.108;2022-08-30T15:23:56;29.30;91.00
26063;DHT22;13837;48.562;12.108;2022-08-30T15:26:23;29.50;91.10
26063;DHT22;13837;48.562;12.108;2022-08-30T15:28:49;29.20;91.90
26063;DHT22;13837;48.562;12.108;2022-08-30T15:31:18;29.10;91.50
26063;DHT22;13837;48.562;12.108;2022-08-30T15:33:44;29.00;92.00
26063;DHT22;13837;48.562;12.108;2022-08-30T15:36:11;28.90;92.30
26063;DHT22;13837;48.562;12.108;2022-08-30T15:38:37;28.80;92.40
26063;DHT22;13837;48.562;12.108;2022-08-30T15:41:06;28.70;92.90
26063;DHT22;13837;48.562;12.108;2022-08-30T15:43:33;28.70;92.60
26063;DHT22;13837;48.562;12.108;2022-08-30T15:46:18;28.80;92.70
26063;DHT22;13837;48.562;12.108;2022-08-30T15:48:47;28.80;93.00
26063;DHT22;13837;48.562;12.108;2022-08-30T15:51:13;29.00;92.30
26063;DHT22;13837;48.562;12.108;2022-08-30T15:53:39;28.90;92.10
26063;DHT22;13837;48.562;12.108;2022-08-30T15:56:05;29.00;92.60
26063;DHT22;13837;48.562;12.108;2022-08-30T15:58:31;29.10;91.70
26063;DHT22;13837;48.562;12.108;2022-08-30T16:00:56;29.10;91.90
26063;DHT22;13837;48.562;12.108;2022-08-30T16:03:22;29.10;91.90
26063;DHT22;13837;48.562;12.108;2022-08-30T16:05:48;28.90;91.90
26063;DHT22;13837;48.562;12.108;2022-08-30T16:08:13;28.90;92.10
26063;DHT22;13837;48.562;12.108;2022-08-30T16:10:39;28.90;91.20
26063;DHT22;13837;48.562;12.108;2022-08-30T16:13:05;29.00;91.30
26063;DHT22;13837;48.562;12.108;2022-08-30T16:15:31;28.90;91.70
26063;DHT22;13837;48.562;12.108;2022-08-30T16:17:57;28.80;92.80
26063;DHT22;13837;48.562;12.108;2022-08-30T16:20:22;28.70;91.90
26063;DHT22;13837;48.562;12.108;2022-08-30T16:22:48;28.60;92.50
26063;DHT22;13837;48.562;12.108;2022-08-30T16:25:15;28.70;92.50
26063;DHT22;13837;48.562;12.108;2022-08-30T16:27:41;28.60;92.60
26063;DHT22;13837;48.562;12.108;2022-08-30T16:30:10;28.50;92.20
26063;DHT22;13837;48.562;12.108;2022-08-30T16:32:35;28.50;92.60
26063;DHT22;13837;48.562;12.108;2022-08-30T16:35:02;28.40;92.60
26063;DHT22;13837;48.562;12.108;2022-08-30T16:37:28;28.10;92.90
26063;DHT22;13837;48.562;12.108;2022-08-30T16:39:54;28.10;93.30
26063;DHT22;13837;48.562;12.108;2022-08-30T16:42:20;28.00;93.80
26063;DHT22;13837;48.562;12.108;2022-08-30T16:44:45;27.90;94.20
26063;DHT22;13837;48.562;12.108;2022-08-30T16:47:11;27.90;94.10